sensor_id;sensor_type;location;lat;lon;timestamp;P1;durP1;ratioP1;P2;durP2;ratioP2
26325;SDS011;14032;52.510;7.342;2023-03-01T00:01:03;12.05;;;7.05;;
26325;SDS011;14032;52.510;7.342;2023-03-01T00:03:31;9.45;;;6.75;;
26325;SDS011;14032;52.510;7.342;2023-03-01T00:05:57;9.38;;;6.28;;
26325;SDS011;14032;52.510;7.342;2023-03-01T00:08:24;10.80;;;6.45;;
26325;SDS011;14032;52.510;7.342;2023-03-01T00:10:59;13.75;;;6.85;;
26325;SDS011;14032;52.510;7.342;2023-03-01T00:13:25;11.70;;;6.70;;
26325;SDS011;14032;52.510;7.342;2023-03-01T00:15:51;10.57;;;6.60;;
26325;SDS011;14032;52.510;7.342;2023-03-01T00:18:16;18.13;;;7.18;;
26325;SDS011;14032;52.510;7.342;2023-03-01T00:20:42;9.20;;;6.00;;
26325;SDS011;14032;52.510;7.342;2023-03-01T00:23:15;8.68;;;6.25;;
26325;SDS011;14032;52.510;7.342;2023-03-01T00:25:41;11.00;;;6.40;;
26325;SDS011;14032;52.510;7.342;2023-03-01T00:28:07;9.88;;;6.50;;
26325;SDS011;14032;52.510;7.342;2023-03-01T00:30:32;9.95;;;6.78;;
26325;SDS011;14032;52.510;7.342;2023-03-01T00:32:58;11.02;;;7.22;;
26325;SDS011;14032;52.510;7.342;2023-03-01T00:35:23;12.13;;;6.38;;
26325;SDS011;14032;52.510;7.342;2023-03-01T00:37:49;12.60;;;6.55;;
26325;SDS011;14032;52.510;7.342;2023-03-01T00:40:22;11.70;;;7.47;;
26325;SDS011;14032;52.510;7.342;2023-03-01T00:42:55;10.77;;;7.25;;
26325;SDS011;14032;52.510;7.342;2023-03-01T00:45:21;10.20;;;6.85;;
26325;SDS011;14032;52.510;7.342;2023-03-01T00:47:47;11.93;;;6.95;;
26325;SDS011;14032;52.510;7.342;2023-03-01T00:50:13;13.13;;;7.57;;
26325;SDS011;14032;52.510;7.342;2023-03-01T00:52:39;11.35;;;7.57;;
26325;SDS011;14032;52.510;7.342;2023-03-01T00:55:05;12.63;;;7.50;;
26325;SDS011;14032;52.510;7.342;2023-03-01T00:57:31;12.90;;;7.55;;
26325;SDS011;14032;52.510;7.342;2023-03-01T00:59:57;13.95;;;7.25;;
26325;SDS011;14032;52.510;7.342;2023-03-01T01:02:22;13.35;;;7.63;;
26325;SDS011;14032;52.510;7.342;2023-03-01T01:04:48;11.48;;;7.43;;
26325;SDS011;14032;52.510;7.342;2023-03-01T01:07:14;10.75;;;7.68;;
26325;SDS011;14032;52.510;7.342;2023-03-01T01:09:40;11.60;;;6.93;;
26325;SDS011;14032;52.510;7.342;2023-03-01T01:12:06;11.63;;;7.70;;
26325;SDS011;14032;52.510;7.342;2023-03-01T01:14:32;12.30;;;7.57;;
26325;SDS011;14032;52.510;7.342;2023-03-01T01:16:58;12.52;;;7.60;;
26325;SDS011;14032;52.510;7.342;2023-03-01T01:19:24;11.40;;;8.02;;
26325;SDS011;14032;52.510;7.342;2023-03-01T01:21:50;12.57;;;8.13;;
26325;SDS011;14032;52.510;7.342;2023-03-01T01:24:17;12.77;;;8.38;;
26325;SDS011;14032;52.510;7.342;2023-03-01T01:26:43;13.43;;;8.48;;
26325;SDS011;14032;52.510;7.342;2023-03-01T01:29:10;11.48;;;8.30;;
26325;SDS011;14032;52.510;7.342;2023-03-01T01:31:37;13.43;;;7.85;;
26325;SDS011;14032;52.510;7.342;2023-03-01T01:34:04;13.35;;;8.88;;
26325;SDS011;14032;52.510;7.342;2023-03-01T01:36:31;14.63;;;8.88;;
26325;SDS011;14032;52.510;7.342;2023-03-01T01:38:57;17.05;;;9.52;;
26325;SDS011;14032;52.510;7.342;2023-03-01T01:41:24;16.45;;;9.48;;
26325;SDS011;14032;52.510;7.342;2023-03-01T01:46:43;15.13;;;8.90;;
26325;SDS011;14032;52.510;7.342;2023-03-01T01:51:47;17.63;;;9.43;;
26325;SDS011;14032;52.510;7.342;2023-03-01T01:54:19;15.52;;;9.25;;
26325;SDS011;14032;52.510;7.342;2023-03-01T01:56:52;15.45;;;9.93;;
26325;SDS011;14032;52.510;7.342;2023-03-01T01:59:23;15.30;;;10.00;;
26325;SDS011;14032;52.510;7.342;2023-03-01T02:01:51;15.40;;;9.90;;
26325;SDS011;14032;52.510;7.342;2023-03-01T02:04:17;15.13;;;9.88;;
26325;SDS011;14032;52.510;7.342;2023-03-01T02:07:05;21.08;;;10.65;;
26325;SDS011;14032;52.510;7.342;2023-03-01T02:09:36;16.80;;;10.57;;
26325;SDS011;14032;52.510;7.342;2023-03-01T02:12:02;22.00;;;11.40;;
26325;SDS011;14032;52.510;7.342;2023-03-01T02:14:29;17.63;;;10.27;;
26325;SDS011;14032;52.510;7.342;2023-03-01T02:16:54;14.93;;;9.90;;
26325;SDS011;14032;52.510;7.342;2023-03-01T02:22:30;16.95;;;10.20;;
26325;SDS011;14032;52.510;7.342;2023-03-01T02:27:26;19.45;;;9.20;;
26325;SDS011;14032;52.510;7.342;2023-03-01T02:30:01;16.00;;;9.10;;
26325;SDS011;14032;52.510;7.342;2023-03-01T02:32:27;13.57;;;9.77;;
26325;SDS011;14032;52.510;7.342;2023-03-01T02:34:54;21.00;;;10.15;;
26325;SDS011;14032;52.510;7.342;2023-03-01T02:37:20;17.08;;;9.23;;
26325;SDS011;14032;52.510;7.342;2023-03-01T02:39:50;14.57;;;9.57;;
26325;SDS011;14032;52.510;7.342;2023-03-01T02:42:23;16.88;;;9.52;;
26325;SDS011;14032;52.510;7.342;2023-03-01T02:44:55;17.52;;;9.10;;
26325;SDS011;14032;52.510;7.342;2023-03-01T02:47:21;14.55;;;8.70;;
26325;SDS011;14032;52.510;7.342;2023-03-01T02:49:46;14.63;;;8.82;;
26325;SDS011;14032;52.510;7.342;2023-03-01T02:55:06;14.05;;;9.13;;
26325;SDS011;14032;52.510;7.342;2023-03-01T02:57:36;11.75;;;8.93;;
26325;SDS011;14032;52.510;7.342;2023-03-01T03:00:09;14.43;;;9.93;;
26325;SDS011;14032;52.510;7.342;2023-03-01T03:02:44;14.93;;;8.38;;
26325;SDS011;14032;52.510;7.342;2023-03-01T03:05:12;16.85;;;9.35;;
26325;SDS011;14032;52.510;7.342;2023-03-01T03:07:40;13.60;;;9.50;;
26325;SDS011;14032;52.510;7.342;2023-03-01T03:10:08;16.48;;;9.23;;
26325;SDS011;14032;52.510;7.342;2023-03-01T03:12:36;12.80;;;9.23;;
26325;SDS011;14032;52.510;7.342;2023-03-01T03:15:03;16.45;;;10.25;;
26325;SDS011;14032;52.510;7.342;2023-03-01T03:17:33;12.82;;;8.52;;
26325;SDS011;14032;52.510;7.342;2023-03-01T03:20:03;16.50;;;8.65;;
26325;SDS011;14032;52.510;7.342;2023-03-01T03:22:31;13.35;;;9.85;;
26325;SDS011;14032;52.510;7.342;2023-03-01T03:24:58;13.25;;;9.75;;
26325;SDS011;14032;52.510;7.342;2023-03-01T03:27:28;14.43;;;9.65;;
26325;SDS011;14032;52.510;7.342;2023-03-01T03:29:56;14.60;;;8.27;;
26325;SDS011;14032;52.510;7.342;2023-03-01T03:32:22;17.38;;;10.02;;
26325;SDS011;14032;52.510;7.342;2023-03-01T03:34:48;17.85;;;9.40;;
26325;SDS011;14032;52.510;7.342;2023-03-01T03:37:14;15.45;;;9.77;;
26325;SDS011;14032;52.510;7.342;2023-03-01T03:39:59;15.82;;;9.10;;
26325;SDS011;14032;52.510;7.342;2023-03-01T03:42:25;17.40;;;9.82;;
26325;SDS011;14032;52.510;7.342;2023-03-01T03:44:50;14.52;;;9.20;;
26325;SDS011;14032;52.510;7.342;2023-03-01T03:47:16;18.48;;;9.57;;
26325;SDS011;14032;52.510;7.342;2023-03-01T03:49:42;12.85;;;9.07;;
26325;SDS011;14032;52.510;7.342;2023-03-01T03:52:07;14.57;;;9.02;;
26325;SDS011;14032;52.510;7.342;2023-03-01T03:54:39;13.82;;;9.43;;
26325;SDS011;14032;52.510;7.342;2023-03-01T03:57:05;13.70;;;9.60;;
26325;SDS011;14032;52.510;7.342;2023-03-01T03:59:31;16.73;;;9.80;;
26325;SDS011;14032;52.510;7.342;2023-03-01T04:01:57;17.95;;;10.23;;
26325;SDS011;14032;52.510;7.342;2023-03-01T04:04:22;13.57;;;9.57;;
26325;SDS011;14032;52.510;7.342;2023-03-01T04:06:48;18.90;;;9.73;;
26325;SDS011;14032;52.510;7.342;2023-03-01T04:09:13;19.50;;;9.50;;
26325;SDS011;14032;52.510;7.342;2023-03-01T04:11:39;16.42;;;10.30;;
26325;SDS011;14032;52.510;7.342;2023-03-01T04:14:05;15.43;;;9.52;;
26325;SDS011;14032;52.510;7.342;2023-03-01T04:16:30;15.73;;;9.82;;
26325;SDS011;14032;52.510;7.342;2023-03-01T04:18:56;16.15;;;10.07;;
26325;SDS011;14032;52.510;7.342;2023-03-01T04:21:24;16.10;;;9.95;;
26325;SDS011;14032;52.510;7.342;2023-03-01T04:23:50;17.40;;;9.48;;
26325;SDS011;14032;52.510;7.342;2023-03-01T04:26:19;12.32;;;9.38;;
26325;SDS011;14032;52.510;7.342;2023-03-01T04:28:45;16.02;;;9.95;;
26325;SDS011;14032;52.510;7.342;2023-03-01T04:31:12;15.18;;;9.25;;
26325;SDS011;14032;52.510;7.342;2023-03-01T04:33:46;15.57;;;9.55;;
26325;SDS011;14032;52.510;7.342;2023-03-01T04:36:20;15.25;;;9.23;;
26325;SDS011;14032;52.510;7.342;2023-03-01T04:38:47;16.80;;;9.95;;
26325;SDS011;14032;52.510;7.342;2023-03-01T04:41:14;18.92;;;10.18;;
26325;SDS011;14032;52.510;7.342;2023-03-01T04:43:41;18.70;;;11.25;;
26325;SDS011;14032;52.510;7.342;2023-03-01T04:46:08;19.88;;;10.40;;
26325;SDS011;14032;52.510;7.342;2023-03-01T04:48:36;17.42;;;10.00;;
26325;SDS011;14032;52.510;7.342;2023-03-01T04:51:03;15.10;;;9.23;;
26325;SDS011;14032;52.510;7.342;2023-03-01T04:53:30;26.05;;;10.57;;
26325;SDS011;14032;52.510;7.342;2023-03-01T04:55:57;13.50;;;9.32;;
26325;SDS011;14032;52.510;7.342;2023-03-01T04:58:23;12.73;;;8.73;;
26325;SDS011;14032;52.510;7.342;2023-03-01T05:00:51;16.10;;;10.00;;
26325;SDS011;14032;52.510;7.342;2023-03-01T05:03:17;18.33;;;10.02;;
26325;SDS011;14032;52.510;7.342;2023-03-01T05:05:44;13.80;;;9.35;;
26325;SDS011;14032;52.510;7.342;2023-03-01T05:08:12;13.88;;;10.02;;
26325;SDS011;14032;52.510;7.342;2023-03-01T05:10:43;13.50;;;9.25;;
26325;SDS011;14032;52.510;7.342;2023-03-01T05:13:14;15.90;;;9.68;;
26325;SDS011;14032;52.510;7.342;2023-03-01T05:15:45;15.52;;;9.32;;
26325;SDS011;14032;52.510;7.342;2023-03-01T05:18:13;12.15;;;9.52;;
26325;SDS011;14032;52.510;7.342;2023-03-01T05:20:38;16.08;;;9.82;;
26325;SDS011;14032;52.510;7.342;2023-03-01T05:23:04;16.83;;;10.15;;
26325;SDS011;14032;52.510;7.342;2023-03-01T05:25:30;20.00;;;10.55;;
26325;SDS011;14032;52.510;7.342;2023-03-01T05:28:02;15.55;;;10.77;;
26325;SDS011;14032;52.510;7.342;2023-03-01T05:30:30;14.95;;;9.82;;
26325;SDS011;14032;52.510;7.342;2023-03-01T05:32:59;16.95;;;10.93;;
26325;SDS011;14032;52.510;7.342;2023-03-01T05:35:25;16.73;;;10.25;;
26325;SDS011;14032;52.510;7.342;2023-03-01T05:37:51;15.80;;;10.57;;
26325;SDS011;14032;52.510;7.342;2023-03-01T05:40:18;17.23;;;10.52;;
26325;SDS011;14032;52.510;7.342;2023-03-01T05:42:56;14.57;;;9.73;;
26325;SDS011;14032;52.510;7.342;2023-03-01T05:45:22;15.57;;;10.10;;
26325;SDS011;14032;52.510;7.342;2023-03-01T05:47:49;17.33;;;10.13;;
26325;SDS011;14032;52.510;7.342;2023-03-01T05:50:19;16.10;;;10.05;;
26325;SDS011;14032;52.510;7.342;2023-03-01T05:52:47;15.40;;;10.13;;
26325;SDS011;14032;52.510;7.342;2023-03-01T05:55:15;14.68;;;9.77;;
26325;SDS011;14032;52.510;7.342;2023-03-01T05:57:42;15.80;;;10.45;;
26325;SDS011;14032;52.510;7.342;2023-03-01T06:00:08;19.23;;;10.40;;
26325;SDS011;14032;52.510;7.342;2023-03-01T06:02:35;18.20;;;10.65;;
26325;SDS011;14032;52.510;7.342;2023-03-01T06:05:01;16.30;;;10.70;;
26325;SDS011;14032;52.510;7.342;2023-03-01T06:07:27;15.63;;;10.85;;
26325;SDS011;14032;52.510;7.342;2023-03-01T06:09:53;18.92;;;10.50;;
26325;SDS011;14032;52.510;7.342;2023-03-01T06:12:18;16.70;;;10.32;;
26325;SDS011;14032;52.510;7.342;2023-03-01T06:14:44;29.60;;;12.88;;
26325;SDS011;14032;52.510;7.342;2023-03-01T06:17:12;19.95;;;10.45;;
26325;SDS011;14032;52.510;7.342;2023-03-01T06:19:37;21.30;;;10.38;;
26325;SDS011;14032;52.510;7.342;2023-03-01T06:22:03;28.52;;;10.75;;
26325;SDS011;14032;52.510;7.342;2023-03-01T06:24:28;19.00;;;10.15;;
26325;SDS011;14032;52.510;7.342;2023-03-01T06:26:54;16.60;;;10.60;;
26325;SDS011;14032;52.510;7.342;2023-03-01T06:29:20;17.48;;;11.18;;
26325;SDS011;14032;52.510;7.342;2023-03-01T06:31:47;21.77;;;11.40;;
26325;SDS011;14032;52.510;7.342;2023-03-01T06:34:13;19.27;;;11.30;;
26325;SDS011;14032;52.510;7.342;2023-03-01T06:36:39;14.13;;;10.50;;
26325;SDS011;14032;52.510;7.342;2023-03-01T06:39:05;18.88;;;11.13;;
26325;SDS011;14032;52.510;7.342;2023-03-01T06:41:31;19.60;;;10.95;;
26325;SDS011;14032;52.510;7.342;2023-03-01T06:43:57;17.40;;;11.02;;
26325;SDS011;14032;52.510;7.342;2023-03-01T06:46:23;14.95;;;10.68;;
26325;SDS011;14032;52.510;7.342;2023-03-01T06:48:49;17.17;;;10.45;;
26325;SDS011;14032;52.510;7.342;2023-03-01T06:51:15;20.10;;;11.18;;
26325;SDS011;14032;52.510;7.342;2023-03-01T06:53:42;18.08;;;9.93;;
26325;SDS011;14032;52.510;7.342;2023-03-01T06:56:07;15.55;;;10.32;;
26325;SDS011;14032;52.510;7.342;2023-03-01T06:58:33;19.40;;;11.10;;
26325;SDS011;14032;52.510;7.342;2023-03-01T07:00:58;16.48;;;10.68;;
26325;SDS011;14032;52.510;7.342;2023-03-01T07:03:24;18.58;;;10.40;;
26325;SDS011;14032;52.510;7.342;2023-03-01T07:05:50;14.20;;;10.20;;
26325;SDS011;14032;52.510;7.342;2023-03-01T07:08:19;15.52;;;10.32;;
26325;SDS011;14032;52.510;7.342;2023-03-01T07:10:45;17.73;;;10.02;;
26325;SDS011;14032;52.510;7.342;2023-03-01T07:13:10;34.55;;;11.43;;
26325;SDS011;14032;52.510;7.342;2023-03-01T07:15:36;23.75;;;10.73;;
26325;SDS011;14032;52.510;7.342;2023-03-01T07:18:02;25.52;;;11.60;;
26325;SDS011;14032;52.510;7.342;2023-03-01T07:20:27;19.38;;;11.82;;
26325;SDS011;14032;52.510;7.342;2023-03-01T07:22:53;20.13;;;11.43;;
26325;SDS011;14032;52.510;7.342;2023-03-01T07:25:19;29.00;;;12.18;;
26325;SDS011;14032;52.510;7.342;2023-03-01T07:27:49;19.38;;;11.13;;
26325;SDS011;14032;52.510;7.342;2023-03-01T07:30:19;18.73;;;11.40;;
26325;SDS011;14032;52.510;7.342;2023-03-01T07:32:45;25.52;;;12.02;;
26325;SDS011;14032;52.510;7.342;2023-03-01T07:35:11;21.15;;;12.00;;
26325;SDS011;14032;52.510;7.342;2023-03-01T07:37:37;22.65;;;12.70;;
26325;SDS011;14032;52.510;7.342;2023-03-01T07:40:02;22.08;;;11.95;;
26325;SDS011;14032;52.510;7.342;2023-03-01T07:42:28;21.48;;;11.95;;
26325;SDS011;14032;52.510;7.342;2023-03-01T07:44:54;17.40;;;11.45;;
26325;SDS011;14032;52.510;7.342;2023-03-01T07:47:19;20.10;;;12.27;;
26325;SDS011;14032;52.510;7.342;2023-03-01T07:49:45;23.60;;;12.13;;
26325;SDS011;14032;52.510;7.342;2023-03-01T07:52:11;19.10;;;11.88;;
26325;SDS011;14032;52.510;7.342;2023-03-01T07:54:37;21.70;;;12.10;;
26325;SDS011;14032;52.510;7.342;2023-03-01T07:57:03;22.98;;;12.52;;
26325;SDS011;14032;52.510;7.342;2023-03-01T07:59:29;19.17;;;12.15;;
26325;SDS011;14032;52.510;7.342;2023-03-01T08:01:55;18.23;;;11.35;;
26325;SDS011;14032;52.510;7.342;2023-03-01T08:04:21;17.65;;;12.10;;
26325;SDS011;14032;52.510;7.342;2023-03-01T08:06:48;18.38;;;12.45;;
26325;SDS011;14032;52.510;7.342;2023-03-01T08:09:13;18.10;;;12.35;;
26325;SDS011;14032;52.510;7.342;2023-03-01T08:11:39;19.67;;;12.75;;
26325;SDS011;14032;52.510;7.342;2023-03-01T08:14:05;20.02;;;11.93;;
26325;SDS011;14032;52.510;7.342;2023-03-01T08:16:31;21.25;;;13.80;;
26325;SDS011;14032;52.510;7.342;2023-03-01T08:19:02;17.80;;;12.15;;
26325;SDS011;14032;52.510;7.342;2023-03-01T08:21:32;20.33;;;12.23;;
26325;SDS011;14032;52.510;7.342;2023-03-01T08:23:59;19.05;;;11.80;;
26325;SDS011;14032;52.510;7.342;2023-03-01T08:26:26;17.00;;;11.45;;
26325;SDS011;14032;52.510;7.342;2023-03-01T08:28:52;18.20;;;11.35;;
26325;SDS011;14032;52.510;7.342;2023-03-01T08:31:21;17.52;;;10.68;;
26325;SDS011;14032;52.510;7.342;2023-03-01T08:34:07;18.63;;;9.95;;
26325;SDS011;14032;52.510;7.342;2023-03-01T08:36:38;13.55;;;9.18;;
26325;SDS011;14032;52.510;7.342;2023-03-01T08:39:05;17.17;;;9.90;;
26325;SDS011;14032;52.510;7.342;2023-03-01T08:41:33;13.43;;;8.88;;
26325;SDS011;14032;52.510;7.342;2023-03-01T08:43:59;17.70;;;8.45;;
26325;SDS011;14032;52.510;7.342;2023-03-01T08:46:28;16.77;;;9.18;;
26325;SDS011;14032;52.510;7.342;2023-03-01T08:48:55;18.20;;;8.60;;
26325;SDS011;14032;52.510;7.342;2023-03-01T08:51:21;14.27;;;8.68;;
26325;SDS011;14032;52.510;7.342;2023-03-01T08:53:49;13.55;;;8.65;;
26325;SDS011;14032;52.510;7.342;2023-03-01T08:56:15;12.27;;;7.97;;
26325;SDS011;14032;52.510;7.342;2023-03-01T08:58:48;14.18;;;8.40;;
26325;SDS011;14032;52.510;7.342;2023-03-01T09:01:15;13.63;;;7.93;;
26325;SDS011;14032;52.510;7.342;2023-03-01T09:03:42;14.27;;;7.88;;
26325;SDS011;14032;52.510;7.342;2023-03-01T09:06:08;16.05;;;7.10;;
26325;SDS011;14032;52.510;7.342;2023-03-01T09:08:34;13.68;;;7.78;;
26325;SDS011;14032;52.510;7.342;2023-03-01T09:11:06;11.82;;;7.68;;
26325;SDS011;14032;52.510;7.342;2023-03-01T09:13:33;12.65;;;7.18;;
26325;SDS011;14032;52.510;7.342;2023-03-01T09:16:00;14.45;;;7.63;;
26325;SDS011;14032;52.510;7.342;2023-03-01T09:18:27;10.63;;;6.05;;
26325;SDS011;14032;52.510;7.342;2023-03-01T09:21:00;10.07;;;6.65;;
26325;SDS011;14032;52.510;7.342;2023-03-01T09:23:37;8.60;;;5.75;;
26325;SDS011;14032;52.510;7.342;2023-03-01T09:26:08;12.80;;;6.53;;
26325;SDS011;14032;52.510;7.342;2023-03-01T09:28:36;13.00;;;5.90;;
26325;SDS011;14032;52.510;7.342;2023-03-01T09:31:04;12.30;;;5.90;;
26325;SDS011;14032;52.510;7.342;2023-03-01T09:33:30;10.02;;;6.15;;
26325;SDS011;14032;52.510;7.342;2023-03-01T09:35:59;11.63;;;5.97;;
26325;SDS011;14032;52.510;7.342;2023-03-01T09:38:26;10.57;;;5.65;;
26325;SDS011;14032;52.510;7.342;2023-03-01T09:40:52;11.15;;;6.22;;
26325;SDS011;14032;52.510;7.342;2023-03-01T09:43:21;8.05;;;5.43;;
26325;SDS011;14032;52.510;7.342;2023-03-01T09:45:49;9.02;;;5.43;;
26325;SDS011;14032;52.510;7.342;2023-03-01T09:48:18;10.65;;;5.82;;
26325;SDS011;14032;52.510;7.342;2023-03-01T09:50:48;10.02;;;5.93;;
26325;SDS011;14032;52.510;7.342;2023-03-01T09:53:20;10.00;;;5.43;;
26325;SDS011;14032;52.510;7.342;2023-03-01T09:55:52;10.13;;;5.65;;
26325;SDS011;14032;52.510;7.342;2023-03-01T10:04:28;8.27;;;3.70;;
26325;SDS011;14032;52.510;7.342;2023-03-01T10:09:57;6.22;;;3.72;;
26325;SDS011;14032;52.510;7.342;2023-03-01T10:12:26;8.60;;;4.07;;
26325;SDS011;14032;52.510;7.342;2023-03-01T10:15:07;6.03;;;3.63;;
26325;SDS011;14032;52.510;7.342;2023-03-01T10:17:41;7.38;;;4.38;;
26325;SDS011;14032;52.510;7.342;2023-03-01T10:20:41;7.88;;;4.20;;
26325;SDS011;14032;52.510;7.342;2023-03-01T10:23:26;7.95;;;4.60;;
26325;SDS011;14032;52.510;7.342;2023-03-01T10:31:15;8.00;;;4.72;;
26325;SDS011;14032;52.510;7.342;2023-03-01T10:33:47;7.97;;;4.50;;
26325;SDS011;14032;52.510;7.342;2023-03-01T10:36:16;9.63;;;4.75;;
26325;SDS011;14032;52.510;7.342;2023-03-01T10:38:49;12.13;;;5.35;;
26325;SDS011;14032;52.510;7.342;2023-03-01T10:41:24;9.68;;;5.20;;
26325;SDS011;14032;52.510;7.342;2023-03-01T10:43:52;10.10;;;4.93;;
26325;SDS011;14032;52.510;7.342;2023-03-01T10:46:35;9.75;;;4.80;;
26325;SDS011;14032;52.510;7.342;2023-03-01T10:49:23;8.63;;;4.80;;
26325;SDS011;14032;52.510;7.342;2023-03-01T10:51:51;7.53;;;4.57;;
26325;SDS011;14032;52.510;7.342;2023-03-01T10:54:28;7.25;;;4.53;;
26325;SDS011;14032;52.510;7.342;2023-03-01T10:57:01;9.85;;;4.68;;
26325;SDS011;14032;52.510;7.342;2023-03-01T10:59:31;8.45;;;4.80;;
26325;SDS011;14032;52.510;7.342;2023-03-01T11:04:58;14.32;;;4.43;;
26325;SDS011;14032;52.510;7.342;2023-03-01T11:07:26;8.00;;;4.47;;
26325;SDS011;14032;52.510;7.342;2023-03-01T11:09:52;6.97;;;4.18;;
26325;SDS011;14032;52.510;7.342;2023-03-01T11:12:17;6.97;;;4.20;;
26325;SDS011;14032;52.510;7.342;2023-03-01T11:14:47;7.93;;;3.90;;
26325;SDS011;14032;52.510;7.342;2023-03-01T11:17:17;7.00;;;4.05;;
26325;SDS011;14032;52.510;7.342;2023-03-01T11:22:37;10.48;;;4.18;;
26325;SDS011;14032;52.510;7.342;2023-03-01T11:25:14;11.00;;;4.60;;
26325;SDS011;14032;52.510;7.342;2023-03-01T11:27:43;8.75;;;4.28;;
26325;SDS011;14032;52.510;7.342;2023-03-01T11:33:05;9.68;;;4.43;;
26325;SDS011;14032;52.510;7.342;2023-03-01T11:38:43;7.38;;;4.28;;
26325;SDS011;14032;52.510;7.342;2023-03-01T11:54:30;8.13;;;4.13;;
26325;SDS011;14032;52.510;7.342;2023-03-01T11:57:11;7.18;;;4.38;;
26325;SDS011;14032;52.510;7.342;2023-03-01T12:05:45;7.72;;;4.20;;
26325;SDS011;14032;52.510;7.342;2023-03-01T12:08:38;7.57;;;4.05;;
26325;SDS011;14032;52.510;7.342;2023-03-01T12:11:14;7.00;;;4.10;;
26325;SDS011;14032;52.510;7.342;2023-03-01T12:22:21;8.18;;;5.00;;
26325;SDS011;14032;52.510;7.342;2023-03-01T12:35:54;6.97;;;4.30;;
26325;SDS011;14032;52.510;7.342;2023-03-01T12:38:44;10.07;;;4.85;;
26325;SDS011;14032;52.510;7.342;2023-03-01T12:41:21;15.75;;;5.40;;
26325;SDS011;14032;52.510;7.342;2023-03-01T12:44:03;8.57;;;4.43;;
26325;SDS011;14032;52.510;7.342;2023-03-01T12:49:28;8.80;;;4.32;;
26325;SDS011;14032;52.510;7.342;2023-03-01T12:54:36;9.27;;;4.03;;
26325;SDS011;14032;52.510;7.342;2023-03-01T12:59:45;8.82;;;4.35;;
26325;SDS011;14032;52.510;7.342;2023-03-01T13:05:17;9.73;;;4.13;;
26325;SDS011;14032;52.510;7.342;2023-03-01T13:08:08;9.00;;;4.50;;
26325;SDS011;14032;52.510;7.342;2023-03-01T13:10:50;8.80;;;4.63;;
26325;SDS011;14032;52.510;7.342;2023-03-01T13:13:22;10.20;;;4.72;;
26325;SDS011;14032;52.510;7.342;2023-03-01T13:15:50;7.68;;;4.78;;
26325;SDS011;14032;52.510;7.342;2023-03-01T13:20:48;11.02;;;5.18;;
26325;SDS011;14032;52.510;7.342;2023-03-01T13:31:08;7.22;;;4.28;;
26325;SDS011;14032;52.510;7.342;2023-03-01T13:36:07;10.02;;;4.88;;
26325;SDS011;14032;52.510;7.342;2023-03-01T13:41:52;8.55;;;4.57;;
26325;SDS011;14032;52.510;7.342;2023-03-01T13:46:56;9.48;;;4.53;;
26325;SDS011;14032;52.510;7.342;2023-03-01T13:49:44;8.40;;;4.32;;
26325;SDS011;14032;52.510;7.342;2023-03-01T13:54:59;14.75;;;5.07;;
26325;SDS011;14032;52.510;7.342;2023-03-01T13:57:28;8.45;;;4.07;;
26325;SDS011;14032;52.510;7.342;2023-03-01T13:59:59;5.80;;;3.85;;
26325;SDS011;14032;52.510;7.342;2023-03-01T14:02:25;6.78;;;3.88;;
26325;SDS011;14032;52.510;7.342;2023-03-01T14:04:57;9.70;;;4.55;;
26325;SDS011;14032;52.510;7.342;2023-03-01T14:07:25;11.35;;;4.75;;
26325;SDS011;14032;52.510;7.342;2023-03-01T14:09:55;7.97;;;4.30;;
26325;SDS011;14032;52.510;7.342;2023-03-01T14:18:03;12.25;;;4.93;;
26325;SDS011;14032;52.510;7.342;2023-03-01T14:20:37;7.93;;;4.68;;
26325;SDS011;14032;52.510;7.342;2023-03-01T14:23:13;10.73;;;5.45;;
26325;SDS011;14032;52.510;7.342;2023-03-01T14:25:46;10.63;;;5.50;;
26325;SDS011;14032;52.510;7.342;2023-03-01T14:30:53;11.18;;;5.18;;
26325;SDS011;14032;52.510;7.342;2023-03-01T14:33:27;7.18;;;4.45;;
26325;SDS011;14032;52.510;7.342;2023-03-01T14:38:35;8.32;;;4.93;;
26325;SDS011;14032;52.510;7.342;2023-03-01T14:41:02;9.05;;;4.70;;
26325;SDS011;14032;52.510;7.342;2023-03-01T14:43:37;9.70;;;4.95;;
26325;SDS011;14032;52.510;7.342;2023-03-01T14:46:19;9.10;;;5.45;;
26325;SDS011;14032;52.510;7.342;2023-03-01T14:48:58;9.55;;;5.03;;
26325;SDS011;14032;52.510;7.342;2023-03-01T14:51:27;8.82;;;5.15;;
26325;SDS011;14032;52.510;7.342;2023-03-01T14:53:53;10.13;;;5.22;;
26325;SDS011;14032;52.510;7.342;2023-03-01T14:56:19;9.05;;;5.50;;
26325;SDS011;14032;52.510;7.342;2023-03-01T14:58:46;13.00;;;5.63;;
26325;SDS011;14032;52.510;7.342;2023-03-01T15:01:16;9.85;;;5.60;;
26325;SDS011;14032;52.510;7.342;2023-03-01T15:03:43;10.60;;;5.65;;
26325;SDS011;14032;52.510;7.342;2023-03-01T15:06:14;9.98;;;5.65;;
26325;SDS011;14032;52.510;7.342;2023-03-01T15:08:47;8.80;;;5.53;;
26325;SDS011;14032;52.510;7.342;2023-03-01T15:11:20;13.88;;;7.10;;
26325;SDS011;14032;52.510;7.342;2023-03-01T15:13:53;10.38;;;6.20;;
26325;SDS011;14032;52.510;7.342;2023-03-01T15:18:49;9.45;;;5.85;;
26325;SDS011;14032;52.510;7.342;2023-03-01T15:21:20;11.50;;;6.78;;
26325;SDS011;14032;52.510;7.342;2023-03-01T15:23:49;11.45;;;6.80;;
26325;SDS011;14032;52.510;7.342;2023-03-01T15:26:38;14.65;;;6.65;;
26325;SDS011;14032;52.510;7.342;2023-03-01T15:29:17;11.70;;;6.88;;
26325;SDS011;14032;52.510;7.342;2023-03-01T15:32:01;10.88;;;6.82;;
26325;SDS011;14032;52.510;7.342;2023-03-01T15:36:59;27.00;;;7.40;;
26325;SDS011;14032;52.510;7.342;2023-03-01T15:40:17;13.23;;;8.05;;
26325;SDS011;14032;52.510;7.342;2023-03-01T15:45:11;13.70;;;7.53;;
